TimeCDT,TemperatureF,Dew PointF,Humidity,Sea Level PressureIn,VisibilityMPH,Wind Direction,Wind SpeedMPH,Gust SpeedMPH,PrecipitationIn,Events,Conditions,WindDirDegrees,DateUTC
12:15 AM,54.1,50.9,89,29.38,10.0,West,11.5,18.4,N/A,Rain,Light Rain,270,2012-10-18 05:15:00
12:35 AM,54.0,51.1,90,29.36,10.0,West,8.1,-,N/A,,Overcast,270,2012-10-18 05:35:00
12:55 AM,53.6,50.7,90,29.38,10.0,WSW,10.4,-,N/A,,Overcast,250,2012-10-18 05:55:00
1:15 AM,53.2,50.0,89,29.38,10.0,WSW,9.2,-,N/A,,Overcast,250,2012-10-18 06:15:00
1:35 AM,52.7,49.5,89,29.36,10.0,WSW,8.1,-,N/A,,Overcast,250,2012-10-18 06:35:00
1:55 AM,52.7,49.5,89,29.36,10.0,WSW,9.2,-,N/A,,Overcast,250,2012-10-18 06:55:00
2:15 AM,52.7,49.3,88,29.36,10.0,WSW,11.5,-,N/A,,Overcast,250,2012-10-18 07:15:00
2:35 AM,52.7,48.7,86,29.36,10.0,WSW,12.7,-,N/A,,Overcast,240,2012-10-18 07:35:00
2:55 AM,51.8,49.1,90,29.36,7.0,WSW,13.8,18.4,0.03,Rain,Rain,240,2012-10-18 07:55:00
3:15 AM,51.1,49.1,93,29.36,5.0,WSW,12.7,-,0.08,Rain,Rain,250,2012-10-18 08:15:00
3:35 AM,50.7,47.3,88,29.35,10.0,WSW,13.8,-,0.10,,Overcast,250,2012-10-18 08:35:00
3:55 AM,49.8,45.7,86,29.36,10.0,WSW,16.1,25.3,0.10,,Mostly Cloudy,250,2012-10-18 08:55:00
4:15 AM,49.1,43.5,81,29.36,10.0,WSW,11.5,19.6,N/A,,Scattered Clouds,250,2012-10-18 09:15:00
4:35 AM,48.9,43.2,80,29.37,10.0,WSW,12.7,19.6,N/A,,Clear,240,2012-10-18 09:35:00
4:55 AM,48.2,43.2,83,29.37,10.0,WSW,10.4,-,N/A,,Clear,240,2012-10-18 09:55:00
5:15 AM,47.5,43.0,84,29.38,10.0,SW,12.7,16.1,N/A,,Mostly Cloudy,230,2012-10-18 10:15:00
5:35 AM,47.3,42.8,84,29.38,10.0,SW,13.8,-,N/A,,Overcast,230,2012-10-18 10:35:00
5:55 AM,47.3,42.8,84,29.38,10.0,SW,12.7,-,N/A,,Overcast,230,2012-10-18 10:55:00
6:15 AM,46.9,42.1,83,29.39,10.0,SW,13.8,18.4,N/A,,Mostly Cloudy,230,2012-10-18 11:15:00
6:35 AM,46.4,41.7,84,29.40,10.0,WSW,12.7,-,N/A,,Overcast,240,2012-10-18 11:35:00
6:55 AM,45.7,40.8,83,29.40,10.0,WSW,13.8,19.6,N/A,,Scattered Clouds,240,2012-10-18 11:55:00
7:15 AM,45.1,39.7,81,29.41,10.0,WSW,15.0,20.7,N/A,,Clear,240,2012-10-18 12:15:00
7:35 AM,44.6,39.2,81,29.41,10.0,WNW,10.4,-,N/A,,Clear,290,2012-10-18 12:35:00
7:55 AM,44.6,39.2,81,29.42,10.0,SW,10.4,-,N/A,,Clear,230,2012-10-18 12:55:00
8:15 AM,45.5,39.4,79,29.42,7.0,SW,12.7,-,N/A,,Clear,220,2012-10-18 13:15:00
8:35 AM,46.2,39.2,76,29.43,10.0,SW,12.7,-,N/A,,Clear,230,2012-10-18 13:35:00
8:55 AM,47.3,39.4,74,29.43,10.0,SW,12.7,-,N/A,,Clear,220,2012-10-18 13:55:00
9:15 AM,48.4,39.6,72,29.43,10.0,SW,16.1,21.9,N/A,,Clear,220,2012-10-18 14:15:00
9:35 AM,50.4,40.3,68,29.43,10.0,SW,16.1,21.9,N/A,,Mostly Cloudy,220,2012-10-18 14:35:00
9:55 AM,50.4,40.1,68,29.43,10.0,SW,15.0,23.0,N/A,,Overcast,220,2012-10-18 14:55:00
10:15 AM,52.0,39.4,62,29.43,10.0,WSW,21.9,26.5,N/A,,Scattered Clouds,250,2012-10-18 15:15:00
10:35 AM,52.7,39.7,61,29.44,10.0,WSW,18.4,24.2,N/A,,Clear,250,2012-10-18 15:35:00
10:55 AM,53.6,40.3,61,29.44,10.0,SW,15.0,25.3,N/A,,Clear,230,2012-10-18 15:55:00
11:15 AM,53.2,39.4,59,29.45,10.0,SW,19.6,26.5,N/A,,Mostly Cloudy,220,2012-10-18 16:15:00
11:35 AM,53.1,37.8,56,29.45,10.0,SW,17.3,27.6,N/A,,Overcast,230,2012-10-18 16:35:00
11:55 AM,53.4,37.4,55,29.45,10.0,SW,11.5,-,N/A,,Overcast,230,2012-10-18 16:55:00
12:15 PM,53.8,35.8,51,29.45,10.0,SW,16.1,25.3,N/A,,Overcast,220,2012-10-18 17:15:00
12:35 PM,54.0,37.4,54,29.45,10.0,SSW,16.1,21.9,N/A,,Overcast,210,2012-10-18 17:35:00
12:55 PM,53.6,37.4,54,29.45,10.0,SSW,17.3,21.9,N/A,,Overcast,210,2012-10-18 17:55:00
1:15 PM,53.6,38.1,56,29.45,10.0,SSW,19.6,27.6,N/A,,Overcast,210,2012-10-18 18:15:00
1:35 PM,53.6,37.4,54,29.45,10.0,SSW,19.6,24.2,N/A,,Overcast,210,2012-10-18 18:35:00
1:55 PM,53.6,36.3,52,29.45,10.0,WSW,15.0,26.5,N/A,,Overcast,250,2012-10-18 18:55:00
2:15 PM,53.6,37.4,54,29.45,10.0,SW,19.6,25.3,N/A,,Overcast,220,2012-10-18 19:15:00
2:35 PM,52.7,34.5,50,29.46,10.0,SW,23.0,31.1,N/A,,Overcast,220,2012-10-18 19:35:00
2:55 PM,52.3,35.1,52,29.46,10.0,SW,17.3,25.3,N/A,,Overcast,220,2012-10-18 19:55:00
3:15 PM,52.0,36.0,54,29.48,10.0,WSW,26.5,34.5,N/A,Rain,Rain,240,2012-10-18 20:15:00
3:35 PM,48.6,37.9,67,29.50,10.0,WSW,19.6,34.5,N/A,,Drizzle,240,2012-10-18 20:35:00
3:55 PM,46.8,40.1,78,29.51,10.0,WSW,16.1,25.3,N/A,Rain,Rain,240,2012-10-18 20:55:00
4:15 PM,46.4,41.0,81,29.52,10.0,SW,15.0,19.6,N/A,Rain,Light Rain,220,2012-10-18 21:15:00
4:35 PM,46.6,41.2,81,29.52,10.0,SSW,13.8,21.9,N/A,Rain,Light Rain,210,2012-10-18 21:35:00
4:55 PM,46.9,40.3,78,29.53,10.0,SSW,16.1,19.6,N/A,,Overcast,210,2012-10-18 21:55:00
5:15 PM,46.4,39.9,78,29.54,10.0,SW,19.6,26.5,0.01,Rain,Rain,230,2012-10-18 22:15:00
5:35 PM,44.8,41.4,88,29.56,10.0,SW,12.7,20.7,0.02,Rain,Light Rain,230,2012-10-18 22:35:00
5:55 PM,44.6,40.8,87,29.56,10.0,SW,12.7,-,0.02,Rain,Light Rain,230,2012-10-18 22:55:00
6:15 PM,44.6,41.5,89,29.56,10.0,SSW,11.5,-,0.01,,Drizzle,210,2012-10-18 23:15:00
6:35 PM,44.6,41.9,90,29.56,10.0,South,8.1,-,0.01,Rain,Light Rain,190,2012-10-18 23:35:00
6:55 PM,44.2,42.1,92,29.56,10.0,South,9.2,-,0.01,Rain,Light Rain,180,2012-10-18 23:55:00
7:15 PM,44.6,41.9,90,29.56,10.0,South,11.5,-,0.01,Rain,Light Rain,180,2012-10-19 00:15:00
7:35 PM,44.6,41.9,90,29.55,10.0,South,11.5,-,0.01,Rain,Rain,180,2012-10-19 00:35:00
7:55 PM,44.6,41.9,90,29.55,10.0,South,10.4,-,0.01,Rain,Light Rain,180,2012-10-19 00:55:00
8:15 PM,44.6,41.9,90,29.55,10.0,South,11.5,-,N/A,Rain,Light Rain,180,2012-10-19 01:15:00
8:35 PM,44.8,41.9,90,29.55,10.0,South,11.5,-,0.01,Rain,Light Rain,180,2012-10-19 01:35:00
8:55 PM,44.6,41.9,90,29.55,10.0,South,12.7,-,0.02,Rain,Light Rain,190,2012-10-19 01:55:00
9:15 PM,44.6,41.5,89,29.55,10.0,South,15.0,19.6,0.01,Rain,Light Rain,190,2012-10-19 02:15:00
9:35 PM,44.2,41.5,90,29.54,10.0,South,13.8,19.6,0.02,Rain,Light Rain,180,2012-10-19 02:35:00
9:55 PM,44.2,41.5,90,29.54,10.0,South,11.5,18.4,0.02,Rain,Rain,190,2012-10-19 02:55:00
10:15 PM,44.6,41.0,87,29.53,10.0,South,11.5,-,N/A,,Drizzle,180,2012-10-19 03:15:00
10:35 PM,44.1,41.5,91,29.53,10.0,South,12.7,-,N/A,,Light Drizzle,190,2012-10-19 03:35:00
10:55 PM,44.1,41.5,91,29.52,10.0,South,12.7,-,N/A,,Drizzle,180,2012-10-19 03:55:00